Portada
METAR-TAF:

METAR-TAF

Aeroports :

Hyderabad, Índia

latitud: 17-27N, longitud: 078-28E, altitud: 530 m

Observació

L'informe es va fer fa 27 minuts, a les 15:00 UTC
Vent 1 kt amb direcció variable
Temperatura 27°C
Humitat 48%
Pressió 1016 hPa
Visibilitat: 6000 m

METAR: VOHY 081500Z VRB01KT 6000 NSC 27/15 Q1016 NOSIG

Hora: 20:57 (15:27 UTC)

Pronòstic

L'informe es va fer fa 4 hores i 27 minuts, a les 11:00 UTC
Pronòstic vàlid del 08 a les 12 UTC al 08 a les 21 UTC
Vent 6 kt del Est/Sud-Est
Visibilitat: 6000 m
Evolucionant progressivament
l' 08 a les 20 UTC al 08 a les 21 UTC
Vent 6 kt del Est
Visibilitat: 5000 m
calitja

TAF: VOHY 081100Z 0812/0821 11006KT 6000 NSC BECMG 0820/0821 08006KT 5000 HZ NSC

Observacions i pronòstics meteorològics de més de 4000 aeroports (METAR i TAF).

Les estacions disponibles són els punts grocs i vermells al mapa.

Posi el ratolí al punt desitjat per veure el nom de l'estació.

Feu clic per veure les observacions i els pronòstics meteorològics.

Per canviar el mapa: feu clic els botons verds amb una creu de color negre per apropar; al botó verd amb un guió per allunyar la imatge; o en les fletxes verdes per a mapes adjacents.


METAR-TAF: